Katowice, Poland
Current Conditions -  °F | °C
As of 11:30 AM on Wednesday 22 Oct 2014 (Local Time) from EPKT Reporting Station
Light Rain Light Rain  
Wind Chill: 39°   Ceiling: 900
Heat Index: 45°   Visibility: 5mi
Dew Point: 45°   Wind: 12mph
Humidity: 100%   Direction: 280°W
Pressure: 29.62"   Gusts: NA
Location:  50.26°N, 19.02°E
Report Text: EPKT 220930Z 28010KT 8000 -RA FEW004 SCT007 BKN009 07/07 Q1003
Loading
Personal Weather Stations






























Interactive Weather Map
Tropical Storm Tracking
New forecast layout! Learn more

10-Day Weather Forecast

Advertisements
Track Severe Weather on mobile